Time;durP1;ratioP1;P1;durP2;ratioP2;P2;SDS_P1;SDS_P2;PMS_P1;PMS_P2;Temp;Humidity;BMP_temperature;BMP_pressure;BME280_temperature;BME280_humidity;BME280_pressure;Samples;Min_cycle;Max_cycle;Signal;HPM_P1;HPM_P2
2023/05/06 00:01:50;;;;;;;12.90;4.07;;;;;;;;;;5139139;27;20458;-68
2023/05/06 00:04:18;;;;;;;5.53;2.93;;;;;;;;;;5140543;27;20468;-69
2023/05/06 00:06:47;;;;;;;5.53;2.83;;;;;;;;;;5138866;27;20506;-69
2023/05/06 00:09:16;;;;;;;6.83;3.70;;;;;;;;;;5139047;27;20540;-69
2023/05/06 00:11:47;;;;;;;7.50;3.33;;;;;;;;;;5138202;27;20454;-69
2023/05/06 00:14:15;;;;;;;7.67;3.27;;;;;;;;;;5139817;27;20443;-68
2023/05/06 00:16:44;;;;;;;9.90;4.10;;;;;;;;;;5137898;27;20465;-68
2023/05/06 00:19:12;;;;;;;6.13;3.23;;;;;;;;;;5138462;27;20454;-68
2023/05/06 00:21:42;;;;;;;9.57;4.80;;;;;;;;;;5137183;27;20465;-69
2023/05/06 00:24:16;;;;;;;6.20;3.77;;;;;;;;;;5138686;27;20464;-69
2023/05/06 00:26:47;;;;;;;6.43;3.40;;;;;;;;;;5126749;27;20486;-69
2023/05/06 00:29:16;;;;;;;6.83;3.27;;;;;;;;;;5130592;27;20446;-69
2023/05/06 00:31:45;;;;;;;7.07;3.57;;;;;;;;;;5138951;27;20454;-69
2023/05/06 00:34:13;;;;;;;5.47;2.70;;;;;;;;;;5138871;27;20454;-68
2023/05/06 00:36:42;;;;;;;8.10;4.20;;;;;;;;;;5137569;27;20450;-69
2023/05/06 00:39:11;;;;;;;9.47;3.73;;;;;;;;;;5137116;27;20454;-68
2023/05/06 00:41:39;;;;;;;6.83;3.43;;;;;;;;;;5136934;27;20458;-69
2023/05/06 00:44:09;;;;;;;10.87;4.03;;;;;;;;;;5138229;27;20982;-68
2023/05/06 00:46:37;;;;;;;5.27;3.30;;;;;;;;;;5136680;28;20922;-69
2023/05/06 00:49:06;;;;;;;7.37;4.20;;;;;;;;;;5137627;28;20458;-68
2023/05/06 00:51:35;;;;;;;6.27;3.80;;;;;;;;;;5138478;28;21063;-69
2023/05/06 00:54:03;;;;;;;6.10;3.07;;;;;;;;;;5139367;28;20471;-69
2023/05/06 00:56:32;;;;;;;10.60;3.50;;;;;;;;;;5138801;28;20441;-69
2023/05/06 00:59:02;;;;;;;6.43;3.37;;;;;;;;;;5138594;27;20446;-69
2023/05/06 01:01:33;;;;;;;10.03;4.50;;;;;;;;;;5138109;28;20451;-70
2023/05/06 01:04:03;;;;;;;7.87;3.47;;;;;;;;;;5139066;28;20446;-69
2023/05/06 01:06:33;;;;;;;5.60;3.73;;;;;;;;;;5140728;27;20482;-69
2023/05/06 01:09:07;;;;;;;9.33;4.50;;;;;;;;;;5142997;27;20531;-70
2023/05/06 01:11:40;;;;;;;5.93;4.60;;;;;;;;;;5143014;27;20493;-70
2023/05/06 01:14:12;;;;;;;5.50;4.00;;;;;;;;;;5143458;27;20525;-69
2023/05/06 01:16:43;;;;;;;6.80;3.70;;;;;;;;;;5140870;27;20458;-69
2023/05/06 01:19:19;;;;;;;6.17;3.70;;;;;;;;;;5139320;27;20491;-69
2023/05/06 01:21:48;;;;;;;6.50;4.03;;;;;;;;;;5123051;27;20926;-69
2023/05/06 01:24:18;;;;;;;10.00;3.97;;;;;;;;;;5120082;28;20858;-70
2023/05/06 01:26:47;;;;;;;9.00;4.60;;;;;;;;;;5121206;27;20902;-69
2023/05/06 01:29:15;;;;;;;9.13;4.13;;;;;;;;;;5138628;27;20442;-70
2023/05/06 01:31:47;;;;;;;7.93;4.17;;;;;;;;;;5139676;27;20896;-69
2023/05/06 01:34:19;;;;;;;7.73;4.30;;;;;;;;;;5141126;27;20458;-69
2023/05/06 01:37:02;;;;;;;6.93;4.60;;;;;;;;;;5140353;27;20853;-70
2023/05/06 01:39:33;;;;;;;7.47;4.03;;;;;;;;;;5140580;27;20461;-69
2023/05/06 01:42:02;;;;;;;7.60;4.50;;;;;;;;;;5140812;27;20853;-69
2023/05/06 01:44:34;;;;;;;7.00;5.00;;;;;;;;;;5141240;27;20457;-69
2023/05/06 01:47:03;;;;;;;10.87;3.67;;;;;;;;;;5141360;27;20967;-69
2023/05/06 01:49:31;;;;;;;12.70;5.27;;;;;;;;;;5142602;27;20800;-70
2023/05/06 01:52:01;;;;;;;7.37;4.13;;;;;;;;;;5142782;27;20738;-70
2023/05/06 01:54:30;;;;;;;5.97;4.10;;;;;;;;;;5142991;27;20858;-70
2023/05/06 01:57:00;;;;;;;9.00;3.70;;;;;;;;;;5142473;27;20467;-69
2023/05/06 01:59:29;;;;;;;10.63;4.57;;;;;;;;;;5141293;27;20447;-70
2023/05/06 02:02:00;;;;;;;6.73;4.40;;;;;;;;;;5140870;27;20468;-69
2023/05/06 02:04:28;;;;;;;8.07;4.93;;;;;;;;;;5141834;27;20819;-69
2023/05/06 02:06:57;;;;;;;7.53;4.30;;;;;;;;;;5139887;27;20478;-68
2023/05/06 02:09:25;;;;;;;6.47;4.50;;;;;;;;;;5142575;27;20461;-68
2023/05/06 02:11:55;;;;;;;6.10;4.33;;;;;;;;;;5141741;27;20439;-69
2023/05/06 02:14:25;;;;;;;8.50;4.30;;;;;;;;;;5135920;27;20444;-69
2023/05/06 02:16:57;;;;;;;9.97;5.43;;;;;;;;;;5139721;27;20519;-69
2023/05/06 02:19:26;;;;;;;10.00;4.50;;;;;;;;;;5140102;27;20505;-69
2023/05/06 02:21:58;;;;;;;9.97;4.50;;;;;;;;;;5142371;27;20454;-70
2023/05/06 02:24:28;;;;;;;6.00;4.73;;;;;;;;;;5143995;27;20446;-70
2023/05/06 02:26:59;;;;;;;9.10;5.57;;;;;;;;;;5140982;27;21221;-70
2023/05/06 02:29:37;;;;;;;6.17;4.13;;;;;;;;;;5140532;27;21045;-69
2023/05/06 02:32:17;;;;;;;6.83;4.77;;;;;;;;;;5142592;27;21071;-69
2023/05/06 02:34:47;;;;;;;7.90;4.77;;;;;;;;;;5142343;27;20709;-69
2023/05/06 02:37:15;;;;;;;6.37;4.63;;;;;;;;;;5142014;27;20545;-69
2023/05/06 02:39:44;;;;;;;8.07;5.43;;;;;;;;;;5142384;27;20495;-69
2023/05/06 02:42:22;;;;;;;8.70;4.60;;;;;;;;;;5142258;27;20736;-69
2023/05/06 02:44:52;;;;;;;8.57;5.10;;;;;;;;;;5141617;27;20530;-69
2023/05/06 02:47:26;;;;;;;8.33;4.77;;;;;;;;;;5142398;27;20569;-70
2023/05/06 02:49:58;;;;;;;7.07;3.90;;;;;;;;;;5142833;27;20445;-70
2023/05/06 02:52:28;;;;;;;9.20;5.20;;;;;;;;;;5143778;27;20461;-69
2023/05/06 02:55:02;;;;;;;9.57;5.87;;;;;;;;;;5143134;27;20457;-69
2023/05/06 02:57:31;;;;;;;5.87;4.17;;;;;;;;;;5143983;27;20535;-69
2023/05/06 03:00:11;;;;;;;7.07;4.80;;;;;;;;;;5145009;27;20501;-70
2023/05/06 03:02:40;;;;;;;8.10;5.17;;;;;;;;;;5144132;27;20474;-68
2023/05/06 03:05:11;;;;;;;6.07;5.07;;;;;;;;;;5144521;27;20796;-68
2023/05/06 03:07:43;;;;;;;6.83;5.30;;;;;;;;;;5144190;27;20542;-67
2023/05/06 03:10:19;;;;;;;6.50;4.63;;;;;;;;;;5124382;28;20530;-69
2023/05/06 03:12:48;;;;;;;8.33;4.60;;;;;;;;;;5124333;28;20908;-69
2023/05/06 03:15:20;;;;;;;5.90;4.60;;;;;;;;;;5123842;28;20485;-69
2023/05/06 03:17:48;;;;;;;6.90;4.30;;;;;;;;;;5123849;28;20443;-69
2023/05/06 03:20:17;;;;;;;8.87;5.87;;;;;;;;;;5142549;27;20446;-69
2023/05/06 03:22:46;;;;;;;6.20;4.50;;;;;;;;;;5145537;27;20458;-69
2023/05/06 03:25:15;;;;;;;6.77;4.97;;;;;;;;;;5143960;27;20458;-68
2023/05/06 03:27:48;;;;;;;9.03;5.27;;;;;;;;;;5142862;27;20840;-70
2023/05/06 03:30:21;;;;;;;9.33;6.13;;;;;;;;;;5143097;27;21053;-69
2023/05/06 03:32:50;;;;;;;7.57;5.50;;;;;;;;;;5141835;27;20454;-68
2023/05/06 03:35:18;;;;;;;8.97;5.00;;;;;;;;;;5142167;27;20734;-69
2023/05/06 03:37:47;;;;;;;14.53;6.57;;;;;;;;;;5141480;27;20516;-69
2023/05/06 03:40:16;;;;;;;8.33;5.93;;;;;;;;;;5141621;27;21018;-69
2023/05/06 03:42:45;;;;;;;5.53;4.37;;;;;;;;;;5141443;27;20447;-69
2023/05/06 03:45:14;;;;;;;7.17;6.10;;;;;;;;;;5141408;27;20473;-69
2023/05/06 03:47:44;;;;;;;8.73;5.80;;;;;;;;;;5142305;27;20473;-69
2023/05/06 03:50:14;;;;;;;8.97;6.20;;;;;;;;;;5140763;27;20473;-70
2023/05/06 03:52:43;;;;;;;7.03;4.97;;;;;;;;;;5142135;27;20784;-69
2023/05/06 03:55:11;;;;;;;7.17;5.90;;;;;;;;;;5141218;27;20747;-70
2023/05/06 03:57:41;;;;;;;8.53;5.07;;;;;;;;;;5141925;27;20446;-68
2023/05/06 04:00:12;;;;;;;10.10;6.30;;;;;;;;;;5141756;27;20454;-70
2023/05/06 04:02:41;;;;;;;7.70;5.40;;;;;;;;;;5135703;27;20443;-68
2023/05/06 04:05:11;;;;;;;8.00;6.33;;;;;;;;;;5120460;28;20451;-69
2023/05/06 04:07:40;;;;;;;10.73;5.43;;;;;;;;;;5117482;28;20479;-69
2023/05/06 04:10:09;;;;;;;9.53;6.00;;;;;;;;;;5118422;28;20870;-70
2023/05/06 04:12:38;;;;;;;10.50;5.73;;;;;;;;;;5118677;28;20447;-69
2023/05/06 04:15:07;;;;;;;7.30;6.20;;;;;;;;;;5119485;28;20862;-70
2023/05/06 04:17:36;;;;;;;7.40;5.57;;;;;;;;;;5119885;28;20443;-68
2023/05/06 04:20:10;;;;;;;8.00;5.50;;;;;;;;;;5120152;28;20786;-69
2023/05/06 04:22:40;;;;;;;12.23;5.70;;;;;;;;;;5120010;28;20458;-70
2023/05/06 04:25:10;;;;;;;8.23;5.30;;;;;;;;;;5122139;28;20563;-70
2023/05/06 04:27:39;;;;;;;14.47;6.57;;;;;;;;;;5135157;27;20514;-70
2023/05/06 04:30:14;;;;;;;9.87;6.13;;;;;;;;;;5141013;27;20458;-69
2023/05/06 04:32:43;;;;;;;10.43;6.00;;;;;;;;;;5144269;27;20496;-69
2023/05/06 04:35:12;;;;;;;8.40;6.77;;;;;;;;;;5139455;27;20457;-69
2023/05/06 04:37:42;;;;;;;8.90;6.03;;;;;;;;;;5142902;27;20446;-69
2023/05/06 04:40:13;;;;;;;9.50;6.10;;;;;;;;;;5139703;27;20442;-70
2023/05/06 04:42:42;;;;;;;9.80;5.40;;;;;;;;;;5143347;27;20470;-69
2023/05/06 04:45:11;;;;;;;9.00;6.17;;;;;;;;;;5142010;27;20446;-69
2023/05/06 04:47:40;;;;;;;10.50;6.27;;;;;;;;;;5143397;28;20475;-70
2023/05/06 04:50:13;;;;;;;12.40;6.40;;;;;;;;;;5142278;28;20446;-70
2023/05/06 04:52:45;;;;;;;8.47;6.73;;;;;;;;;;5142246;28;20466;-68
2023/05/06 04:55:14;;;;;;;8.07;6.27;;;;;;;;;;5142086;28;20485;-70
2023/05/06 04:57:42;;;;;;;9.13;6.60;;;;;;;;;;5127709;28;20447;-70
2023/05/06 05:00:13;;;;;;;7.40;6.03;;;;;;;;;;5121934;28;20447;-68
2023/05/06 05:02:46;;;;;;;7.53;5.77;;;;;;;;;;5139179;28;20893;-69
2023/05/06 05:05:16;;;;;;;10.70;6.23;;;;;;;;;;5141811;28;20501;-70
2023/05/06 05:07:48;;;;;;;8.77;6.13;;;;;;;;;;5139765;28;20815;-70
2023/05/06 05:10:19;;;;;;;9.47;6.50;;;;;;;;;;5142321;28;20450;-71
2023/05/06 05:12:50;;;;;;;9.63;6.13;;;;;;;;;;5140997;28;20503;-70
2023/05/06 05:15:19;;;;;;;7.20;5.67;;;;;;;;;;5142106;28;20810;-69
2023/05/06 05:17:49;;;;;;;8.13;6.07;;;;;;;;;;5140069;28;20450;-69
2023/05/06 05:20:17;;;;;;;8.77;5.90;;;;;;;;;;5142226;28;20461;-71
2023/05/06 05:22:48;;;;;;;13.20;7.57;;;;;;;;;;5140129;28;20454;-69
2023/05/06 05:25:17;;;;;;;11.10;6.03;;;;;;;;;;5140747;28;20454;-69
2023/05/06 05:27:48;;;;;;;7.90;6.03;;;;;;;;;;5139961;27;20802;-69
2023/05/06 05:30:18;;;;;;;6.73;5.93;;;;;;;;;;5142032;27;20907;-69
2023/05/06 05:33:09;;;;;;;12.83;7.50;;;;;;;;;;5129450;28;20446;-71
2023/05/06 05:35:37;;;;;;;10.70;6.97;;;;;;;;;;5138036;28;20483;-69
2023/05/06 05:38:07;;;;;;;11.80;7.40;;;;;;;;;;5137357;28;20793;-70
2023/05/06 05:40:46;;;;;;;9.83;6.20;;;;;;;;;;5137366;28;20887;-71
2023/05/06 05:43:15;;;;;;;11.70;7.30;;;;;;;;;;5133872;28;20455;-69
2023/05/06 05:45:45;;;;;;;10.40;6.80;;;;;;;;;;5132058;28;20853;-68
2023/05/06 05:48:14;;;;;;;8.47;6.50;;;;;;;;;;5137377;28;20484;-68
2023/05/06 05:50:43;;;;;;;9.83;6.73;;;;;;;;;;5139067;27;20442;-69
2023/05/06 05:53:14;;;;;;;11.00;7.30;;;;;;;;;;5140940;27;20515;-68
2023/05/06 05:55:44;;;;;;;11.80;7.07;;;;;;;;;;5142409;27;20431;-69
2023/05/06 05:58:17;;;;;;;9.03;6.87;;;;;;;;;;5143162;27;20474;-69
2023/05/06 06:00:46;;;;;;;9.40;6.90;;;;;;;;;;5140617;27;20570;-68
2023/05/06 06:03:21;;;;;;;8.97;6.57;;;;;;;;;;5143334;27;20454;-70
2023/05/06 06:05:51;;;;;;;10.80;7.37;;;;;;;;;;5133410;27;20542;-69
2023/05/06 06:08:22;;;;;;;11.20;7.07;;;;;;;;;;5125506;27;20996;-70
2023/05/06 06:10:55;;;;;;;8.80;6.70;;;;;;;;;;5121271;28;20451;-69
2023/05/06 06:13:27;;;;;;;7.70;5.80;;;;;;;;;;5121547;28;20451;-69
2023/05/06 06:15:57;;;;;;;8.97;5.93;;;;;;;;;;5120057;28;20520;-69
2023/05/06 06:18:27;;;;;;;9.57;6.30;;;;;;;;;;5120237;28;20443;-68
2023/05/06 06:20:55;;;;;;;11.50;7.20;;;;;;;;;;5122207;28;20718;-69
2023/05/06 06:23:27;;;;;;;7.37;5.37;;;;;;;;;;5128607;27;20469;-69
2023/05/06 06:25:56;;;;;;;9.67;6.60;;;;;;;;;;5140834;27;20527;-70
2023/05/06 06:28:36;;;;;;;10.47;7.53;;;;;;;;;;5140469;27;20858;-69
2023/05/06 06:31:06;;;;;;;8.03;6.07;;;;;;;;;;5139093;27;20447;-70
2023/05/06 06:33:58;;;;;;;7.53;6.10;;;;;;;;;;5141007;27;20920;-70
2023/05/06 06:36:32;;;;;;;10.60;6.27;;;;;;;;;;5123204;27;20452;-70
2023/05/06 06:39:08;;;;;;;6.90;5.70;;;;;;;;;;5140937;27;20919;-70
2023/05/06 06:41:41;;;;;;;11.10;8.13;;;;;;;;;;5139284;27;20442;-69
2023/05/06 06:44:11;;;;;;;9.23;5.90;;;;;;;;;;5140944;27;20515;-72
2023/05/06 06:46:42;;;;;;;10.80;6.70;;;;;;;;;;5138893;27;20446;-68
2023/05/06 06:49:22;;;;;;;8.33;5.90;;;;;;;;;;5139378;27;20497;-68
2023/05/06 06:51:53;;;;;;;8.00;6.10;;;;;;;;;;5140352;27;20529;-68
2023/05/06 06:54:24;;;;;;;8.47;6.47;;;;;;;;;;5142274;27;20509;-69
2023/05/06 06:56:56;;;;;;;10.77;6.87;;;;;;;;;;5141803;27;20800;-70
2023/05/06 06:59:26;;;;;;;10.77;6.43;;;;;;;;;;5138678;27;21011;-71
2023/05/06 07:01:57;;;;;;;8.20;6.43;;;;;;;;;;5137214;27;20967;-70
2023/05/06 07:05:01;;;;;;;8.67;7.00;;;;;;;;;;5140086;27;20434;-69
2023/05/06 07:07:38;;;;;;;8.03;6.40;;;;;;;;;;5138540;27;20442;-70
2023/05/06 07:10:15;;;;;;;8.73;6.60;;;;;;;;;;5139142;27;20481;-70
2023/05/06 07:12:44;;;;;;;8.30;6.60;;;;;;;;;;5138607;27;20735;-71
2023/05/06 07:15:18;;;;;;;9.77;6.20;;;;;;;;;;5138645;27;20478;-70
2023/05/06 07:17:48;;;;;;;12.73;7.30;;;;;;;;;;5137931;27;20457;-69
2023/05/06 07:20:19;;;;;;;10.20;6.60;;;;;;;;;;5138829;27;20454;-70
2023/05/06 07:22:48;;;;;;;8.80;6.60;;;;;;;;;;5138196;27;20457;-70
2023/05/06 07:25:30;;;;;;;8.70;6.63;;;;;;;;;;5137399;27;20785;-70
2023/05/06 07:27:59;;;;;;;11.20;7.13;;;;;;;;;;5124507;27;20459;-70
2023/05/06 07:30:27;;;;;;;10.60;7.33;;;;;;;;;;5118533;28;20474;-70
2023/05/06 07:32:56;;;;;;;8.37;7.17;;;;;;;;;;5118248;28;20461;-69
2023/05/06 07:35:25;;;;;;;10.20;8.10;;;;;;;;;;5117987;28;20456;-69
2023/05/06 07:37:53;;;;;;;8.53;6.63;;;;;;;;;;5131046;27;20450;-68
2023/05/06 07:40:26;;;;;;;8.40;6.30;;;;;;;;;;5136375;27;20447;-70
2023/05/06 07:42:56;;;;;;;10.83;6.97;;;;;;;;;;5139750;27;20459;-68
2023/05/06 07:45:25;;;;;;;14.30;6.13;;;;;;;;;;5138068;27;20549;-70
2023/05/06 07:48:04;;;;;;;8.80;6.37;;;;;;;;;;5138569;27;20461;-70
2023/05/06 07:50:33;;;;;;;8.53;6.30;;;;;;;;;;5140402;27;20468;-69
2023/05/06 07:53:05;;;;;;;9.63;7.00;;;;;;;;;;5138318;27;20697;-70
2023/05/06 07:58:25;;;;;;;8.77;6.23;;;;;;;;;;5118183;28;20444;-69
2023/05/06 08:00:53;;;;;;;8.70;6.57;;;;;;;;;;5117894;28;20454;-70
2023/05/06 08:03:22;;;;;;;8.90;6.70;;;;;;;;;;5118393;28;20475;-70
2023/05/06 08:08:49;;;;;;;11.33;7.40;;;;;;;;;;5121932;27;20473;-70
2023/05/06 08:11:20;;;;;;;10.43;7.20;;;;;;;;;;5138232;27;21007;-69
2023/05/06 08:13:49;;;;;;;10.30;6.43;;;;;;;;;;5137627;27;20439;-69
2023/05/06 08:16:18;;;;;;;8.20;6.47;;;;;;;;;;5137522;27;20473;-69
2023/05/06 08:18:46;;;;;;;9.00;7.30;;;;;;;;;;5137601;27;20453;-69
2023/05/06 08:21:15;;;;;;;11.93;6.70;;;;;;;;;;5137482;27;20482;-69
2023/05/06 08:23:44;;;;;;;14.20;7.00;;;;;;;;;;5138634;27;20465;-69
2023/05/06 08:26:15;;;;;;;10.67;6.43;;;;;;;;;;5138113;27;20443;-70
2023/05/06 08:28:45;;;;;;;9.03;6.77;;;;;;;;;;5136567;27;20482;-68
2023/05/06 08:31:15;;;;;;;9.10;5.60;;;;;;;;;;5138778;27;20466;-69
2023/05/06 08:33:52;;;;;;;11.07;6.47;;;;;;;;;;5137608;27;20450;-70
2023/05/06 08:36:20;;;;;;;9.00;6.57;;;;;;;;;;5135881;27;20465;-70
2023/05/06 08:38:51;;;;;;;10.03;5.70;;;;;;;;;;5133882;27;20850;-70
2023/05/06 08:41:41;;;;;;;8.83;6.57;;;;;;;;;;5135428;27;20458;-68
2023/05/06 08:44:17;;;;;;;8.03;6.17;;;;;;;;;;5135524;27;20761;-70
2023/05/06 08:46:50;;;;;;;14.97;10.33;;;;;;;;;;5113290;28;20469;-68
2023/05/06 08:49:21;;;;;;;14.10;9.20;;;;;;;;;;5135527;28;20474;-70
2023/05/06 08:51:53;;;;;;;15.33;7.70;;;;;;;;;;5134944;28;20853;-70
2023/05/06 08:57:42;;;;;;;10.30;6.90;;;;;;;;;;5014219;28;20467;-69
2023/05/06 09:03:12;;;;;;;8.73;7.00;;;;;;;;;;5130723;27;20549;-69
2023/05/06 09:06:01;;;;;;;;;;;;;;;;;;;;;
2023/05/06 09:08:31;;;;;;;16.50;7.73;;;;;;;;;;5107483;28;20823;-68
2023/05/06 09:14:02;;;;;;;10.80;8.40;;;;;;;;;;5132332;28;20529;-70
2023/05/06 09:16:37;;;;;;;10.57;7.23;;;;;;;;;;5137747;28;20480;-69
2023/05/06 09:19:09;;;;;;;9.33;7.17;;;;;;;;;;5134529;28;20968;-68
2023/05/06 09:21:39;;;;;;;14.10;8.13;;;;;;;;;;5133204;28;20484;-71
2023/05/06 09:24:17;;;;;;;10.63;7.07;;;;;;;;;;5135700;28;20454;-67
2023/05/06 09:26:47;;;;;;;10.67;7.43;;;;;;;;;;5134410;27;20445;-68
2023/05/06 09:29:21;;;;;;;11.37;7.80;;;;;;;;;;5119441;28;20479;-68
2023/05/06 09:31:58;;;;;;;15.00;7.43;;;;;;;;;;5121787;27;20459;-69
2023/05/06 09:34:31;;;;;;;9.53;7.10;;;;;;;;;;5124512;27;20511;-69
2023/05/06 09:36:59;;;;;;;11.10;8.60;;;;;;;;;;5120293;28;20439;-69
2023/05/06 09:39:29;;;;;;;18.23;13.30;;;;;;;;;;5120498;28;20439;-69
2023/05/06 09:41:57;;;;;;;20.00;10.70;;;;;;;;;;5137320;27;20462;-68
2023/05/06 09:45:14;;;;;;;16.27;8.90;;;;;;;;;;5134453;27;20535;-69
2023/05/06 09:48:05;;;;;;;11.80;8.60;;;;;;;;;;5122220;27;20475;-68
2023/05/06 09:50:47;;;;;;;15.50;7.07;;;;;;;;;;5138000;27;21169;-70
2023/05/06 09:53:19;;;;;;;15.27;10.57;;;;;;;;;;5123142;27;20993;-69
2023/05/06 09:55:48;;;;;;;11.60;8.17;;;;;;;;;;5137368;27;20445;-69
2023/05/06 09:58:17;;;;;;;9.60;7.03;;;;;;;;;;5136815;27;20450;-70
2023/05/06 10:00:47;;;;;;;13.40;7.93;;;;;;;;;;5138896;27;20432;-69
2023/05/06 10:03:23;;;;;;;13.57;9.07;;;;;;;;;;5136836;27;20466;-69
2023/05/06 10:06:16;;;;;;;15.23;10.23;;;;;;;;;;5138165;27;20574;-67
2023/05/06 10:09:00;;;;;;;10.97;7.23;;;;;;;;;;5121736;27;20457;-69
2023/05/06 10:11:31;;;;;;;10.73;6.57;;;;;;;;;;5141572;27;20446;-70
2023/05/06 10:14:02;;;;;;;14.60;7.80;;;;;;;;;;5135010;27;20473;-69
2023/05/06 10:16:32;;;;;;;10.80;8.00;;;;;;;;;;5119309;28;20447;-68
2023/05/06 10:19:20;;;;;;;15.33;8.73;;;;;;;;;;5123986;27;20515;-70
2023/05/06 10:24:47;;;;;;;10.80;7.13;;;;;;;;;;5151982;27;20471;-69
2023/05/06 10:27:23;;;;;;;11.10;8.27;;;;;;;;;;5134466;27;20450;-69
2023/05/06 10:29:52;;;;;;;13.47;8.30;;;;;;;;;;5113117;28;20577;-69
2023/05/06 10:32:29;;;;;;;13.20;8.07;;;;;;;;;;5124816;27;20462;-69
2023/05/06 10:34:58;;;;;;;13.03;8.20;;;;;;;;;;5135967;27;20461;-69
2023/05/06 10:37:29;;;;;;;12.90;7.90;;;;;;;;;;5134148;27;20454;-69
2023/05/06 10:40:06;;;;;;;10.23;7.47;;;;;;;;;;5136502;27;20450;-69
2023/05/06 10:42:43;;;;;;;16.57;10.07;;;;;;;;;;5139291;27;20446;-69
2023/05/06 10:45:14;;;;;;;15.00;8.97;;;;;;;;;;5129084;27;20456;-69
2023/05/06 10:48:14;;;;;;;15.07;9.20;;;;;;;;;;5132377;27;20553;-70
2023/05/06 10:50:51;;;;;;;12.27;9.17;;;;;;;;;;5046312;28;20483;-69
2023/05/06 10:53:43;;;;;;;13.10;9.90;;;;;;;;;;5107360;27;20459;-68
2023/05/06 10:56:12;;;;;;;13.30;9.17;;;;;;;;;;5134562;27;20450;-69
2023/05/06 10:58:41;;;;;;;13.50;9.50;;;;;;;;;;5136445;27;20752;-69
2023/05/06 11:01:13;;;;;;;14.13;8.77;;;;;;;;;;5136631;27;20434;-68
2023/05/06 11:03:44;;;;;;;17.77;9.93;;;;;;;;;;5138137;27;20460;-69
2023/05/06 11:12:39;;;;;;;17.93;11.23;;;;;;;;;;5065557;27;20500;-69
2023/05/06 11:15:21;;;;;;;18.33;11.40;;;;;;;;;;5133514;27;20438;-69
2023/05/06 11:20:49;;;;;;;15.83;8.70;;;;;;;;;;5129122;27;20754;-69
2023/05/06 11:23:51;;;;;;;14.47;9.77;;;;;;;;;;5114387;27;20579;-70
2023/05/06 11:26:44;;;;;;;20.37;10.47;;;;;;;;;;5115580;28;20715;-69
2023/05/06 11:29:25;;;;;;;18.13;10.40;;;;;;;;;;5129210;27;20459;-69
2023/05/06 11:31:59;;;;;;;16.53;10.27;;;;;;;;;;5124133;27;20698;-70
2023/05/06 11:34:38;;;;;;;15.30;10.00;;;;;;;;;;5133017;27;20443;-70
2023/05/06 11:37:21;;;;;;;12.50;9.17;;;;;;;;;;5127995;27;20717;-70
2023/05/06 11:42:39;;;;;;;13.13;9.80;;;;;;;;;;5129227;27;20458;-70
2023/05/06 11:45:15;;;;;;;16.17;10.57;;;;;;;;;;5138922;27;20468;-70
2023/05/06 11:47:53;;;;;;;15.93;9.97;;;;;;;;;;5136760;27;20452;-72
2023/05/06 11:50:28;;;;;;;17.90;10.67;;;;;;;;;;5136737;27;20482;-70
2023/05/06 11:53:00;;;;;;;15.60;9.93;;;;;;;;;;5136821;27;20603;-71
2023/05/06 11:55:35;;;;;;;17.30;10.30;;;;;;;;;;5136281;27;20438;-70
2023/05/06 11:58:06;;;;;;;13.70;8.97;;;;;;;;;;5137220;27;20495;-69
2023/05/06 12:00:55;;;;;;;15.07;9.40;;;;;;;;;;5136126;27;20450;-70
2023/05/06 12:03:26;;;;;;;12.33;9.57;;;;;;;;;;5136299;27;20434;-69
2023/05/06 12:08:51;;;;;;;13.93;8.83;;;;;;;;;;5127507;27;20455;-69
2023/05/06 12:11:24;;;;;;;15.30;10.63;;;;;;;;;;5125917;27;20481;-70
2023/05/06 12:13:57;;;;;;;15.07;9.00;;;;;;;;;;5135862;27;20441;-69
2023/05/06 12:16:27;;;;;;;13.80;10.17;;;;;;;;;;5126856;27;20745;-68
2023/05/06 12:19:10;;;;;;;14.83;10.30;;;;;;;;;;5133843;27;20442;-69
2023/05/06 12:21:45;;;;;;;17.57;10.73;;;;;;;;;;5119115;27;20442;-69
2023/05/06 12:27:19;;;;;;;15.93;9.87;;;;;;;;;;5128155;27;20552;-68
2023/05/06 12:29:58;;;;;;;14.80;9.97;;;;;;;;;;5135177;27;20538;-70
2023/05/06 12:32:40;;;;;;;16.67;9.53;;;;;;;;;;5135142;27;20765;-71
2023/05/06 12:35:39;;;;;;;13.70;8.80;;;;;;;;;;5136821;27;20545;-69
2023/05/06 12:38:12;;;;;;;20.73;10.40;;;;;;;;;;5137000;27;20447;-69
2023/05/06 12:43:34;;;;;;;15.50;9.20;;;;;;;;;;5122433;27;20456;-71
2023/05/06 12:46:21;;;;;;;17.40;9.50;;;;;;;;;;5115980;28;20476;-70
2023/05/06 12:49:19;;;;;;;14.83;9.33;;;;;;;;;;5133457;28;20707;-70
2023/05/06 12:52:07;;;;;;;15.60;9.13;;;;;;;;;;5134474;28;20966;-69
2023/05/06 12:54:43;;;;;;;17.10;9.53;;;;;;;;;;5137415;28;20587;-70
2023/05/06 12:57:26;;;;;;;13.83;9.73;;;;;;;;;;5134884;28;20775;-69
2023/05/06 12:59:58;;;;;;;15.10;8.63;;;;;;;;;;5133464;28;20519;-71
2023/05/06 13:02:38;;;;;;;15.53;9.73;;;;;;;;;;5140834;27;20442;-71
2023/05/06 13:08:00;;;;;;;17.17;10.97;;;;;;;;;;5140395;27;20437;-69
2023/05/06 13:10:32;;;;;;;12.80;8.07;;;;;;;;;;5138016;27;20545;-71
2023/05/06 13:13:07;;;;;;;14.33;8.47;;;;;;;;;;5138850;27;20465;-71
2023/05/06 13:15:36;;;;;;;16.50;8.70;;;;;;;;;;5138503;27;20461;-68
2023/05/06 13:18:08;;;;;;;15.70;8.50;;;;;;;;;;5140170;27;20456;-70
2023/05/06 13:20:42;;;;;;;10.83;8.10;;;;;;;;;;5141981;27;20968;-70
2023/05/06 13:26:26;;;;;;;13.20;8.90;;;;;;;;;;5141610;27;20457;-70
2023/05/06 13:29:04;;;;;;;12.37;9.27;;;;;;;;;;5138149;27;20463;-70
2023/05/06 13:31:41;;;;;;;9.77;6.77;;;;;;;;;;5136236;27;20589;-71
2023/05/06 13:36:59;;;;;;;11.90;7.00;;;;;;;;;;5140462;27;20442;-70
2023/05/06 13:39:47;;;;;;;11.67;8.10;;;;;;;;;;5139402;27;20434;-70
2023/05/06 13:42:32;;;;;;;11.67;7.13;;;;;;;;;;5139315;27;20438;-71
2023/05/06 13:45:08;;;;;;;8.87;6.50;;;;;;;;;;5130526;27;20529;-69
2023/05/06 13:47:51;;;;;;;9.70;6.33;;;;;;;;;;5134177;27;20465;-69
2023/05/06 13:50:26;;;;;;;11.93;6.23;;;;;;;;;;5138111;27;20476;-70
2023/05/06 13:56:45;;;;;;;10.17;6.87;;;;;;;;;;5092658;27;20463;-70
2023/05/06 13:59:24;;;;;;;10.50;7.50;;;;;;;;;;5148553;27;20457;-70
2023/05/06 14:02:05;;;;;;;10.80;7.23;;;;;;;;;;5145830;27;20446;-69
2023/05/06 14:04:42;;;;;;;8.80;6.23;;;;;;;;;;5138409;27;20457;-68
2023/05/06 14:07:11;;;;;;;37.00;26.27;;;;;;;;;;5137323;27;20437;-69
2023/05/06 14:12:35;;;;;;;10.60;7.60;;;;;;;;;;5112568;28;20440;-69
2023/05/06 14:15:13;;;;;;;13.90;7.57;;;;;;;;;;5132035;27;20450;-69
2023/05/06 14:17:55;;;;;;;11.43;8.27;;;;;;;;;;5133436;27;20450;-68
2023/05/06 14:20:32;;;;;;;14.00;8.50;;;;;;;;;;5135723;27;20465;-69
2023/05/06 14:23:09;;;;;;;11.93;7.70;;;;;;;;;;5137902;27;20467;-69
2023/05/06 14:26:01;;;;;;;10.43;7.33;;;;;;;;;;5137416;27;20470;-70
2023/05/06 14:28:53;;;;;;;10.27;7.90;;;;;;;;;;5136586;27;20450;-68
2023/05/06 14:31:43;;;;;;;11.43;7.03;;;;;;;;;;5132671;27;20473;-69
2023/05/06 14:34:26;;;;;;;12.03;7.40;;;;;;;;;;5135385;27;20446;-69
2023/05/06 14:39:51;;;;;;;12.00;7.20;;;;;;;;;;5127281;27;20465;-69
2023/05/06 14:42:20;;;;;;;8.93;6.67;;;;;;;;;;5114139;28;20538;-69
2023/05/06 14:44:51;;;;;;;11.10;7.33;;;;;;;;;;5123511;27;20461;-69
2023/05/06 14:47:21;;;;;;;10.20;8.20;;;;;;;;;;5122216;27;20451;-70
2023/05/06 14:49:52;;;;;;;10.10;7.27;;;;;;;;;;5123216;27;20768;-68
2023/05/06 14:52:25;;;;;;;12.20;9.27;;;;;;;;;;5134989;27;20504;-68
2023/05/06 14:54:56;;;;;;;10.30;8.20;;;;;;;;;;5135382;27;20439;-69
2023/05/06 14:57:49;;;;;;;9.60;7.20;;;;;;;;;;5129307;27;20447;-69
2023/05/06 15:00:28;;;;;;;9.97;7.60;;;;;;;;;;5116148;28;20447;-70
2023/05/06 15:03:01;;;;;;;9.20;7.90;;;;;;;;;;5115761;28;20537;-69
2023/05/06 15:05:29;;;;;;;12.30;7.60;;;;;;;;;;5116123;28;20491;-69
2023/05/06 15:08:03;;;;;;;11.10;8.57;;;;;;;;;;5127601;27;20458;-69
2023/05/06 15:10:37;;;;;;;12.23;7.43;;;;;;;;;;5136748;27;20484;-70
2023/05/06 15:13:06;;;;;;;15.93;7.97;;;;;;;;;;5134404;27;20728;-70
2023/05/06 15:15:39;;;;;;;9.33;7.80;;;;;;;;;;5135917;27;20458;-69
2023/05/06 15:18:08;;;;;;;10.97;8.80;;;;;;;;;;5135419;27;20514;-70
2023/05/06 15:23:23;;;;;;;11.73;8.33;;;;;;;;;;5131009;27;20442;-70
2023/05/06 15:25:55;;;;;;;9.60;7.47;;;;;;;;;;5134274;27;20965;-70
2023/05/06 15:28:25;;;;;;;10.70;8.27;;;;;;;;;;5135637;27;20453;-70
2023/05/06 15:31:10;;;;;;;13.67;7.70;;;;;;;;;;5134397;27;20616;-70
2023/05/06 15:33:49;;;;;;;10.10;7.67;;;;;;;;;;5112793;28;20459;-70
2023/05/06 15:36:25;;;;;;;12.97;8.10;;;;;;;;;;5128746;27;20446;-69
2023/05/06 15:39:00;;;;;;;14.47;10.60;;;;;;;;;;5135088;27;20881;-70
2023/05/06 15:41:34;;;;;;;11.90;8.10;;;;;;;;;;5118800;27;20458;-70
2023/05/06 15:44:11;;;;;;;13.17;9.33;;;;;;;;;;5120000;27;20484;-70
2023/05/06 15:46:46;;;;;;;13.20;9.70;;;;;;;;;;5136928;27;20518;-69
2023/05/06 15:49:22;;;;;;;14.43;9.40;;;;;;;;;;5134774;27;20603;-70
2023/05/06 15:51:51;;;;;;;15.33;9.60;;;;;;;;;;5129116;27;20486;-70
2023/05/06 15:54:21;;;;;;;15.30;10.77;;;;;;;;;;5134070;27;20446;-69
2023/05/06 15:56:53;;;;;;;17.50;10.97;;;;;;;;;;5133096;27;20724;-70
2023/05/06 16:02:38;;;;;;;19.70;11.33;;;;;;;;;;5124529;27;20538;-70
2023/05/06 16:08:16;;;;;;;19.50;11.60;;;;;;;;;;5131894;27;21075;-69
2023/05/06 16:10:47;;;;;;;18.70;11.47;;;;;;;;;;5134341;27;20502;-70
2023/05/06 16:13:33;;;;;;;21.57;12.00;;;;;;;;;;5132468;27;20489;-70
2023/05/06 16:16:07;;;;;;;20.43;12.30;;;;;;;;;;5114447;28;20455;-69
2023/05/06 16:18:37;;;;;;;19.10;11.73;;;;;;;;;;5113377;28;20734;-70